sensor_id;sensor_type;location;lat;lon;timestamp;pressure;altitude;pressure_sealevel;temperature;humidity
43312;BME280;30041;48.300;16.352;2023-01-28T00:01:46;100142.66;;;22.05;40.56
43312;BME280;30041;48.300;16.352;2023-01-28T00:04:12;100141.00;;;22.04;40.62
43312;BME280;30041;48.300;16.352;2023-01-28T00:06:37;100146.41;;;22.04;40.55
43312;BME280;30041;48.300;16.352;2023-01-28T00:09:03;100143.72;;;22.04;40.57
43312;BME280;30041;48.300;16.352;2023-01-28T00:11:28;100151.00;;;22.04;40.33
43312;BME280;30041;48.300;16.352;2023-01-28T00:13:54;100150.41;;;22.02;40.85
43312;BME280;30041;48.300;16.352;2023-01-28T00:16:20;100151.22;;;22.02;40.64
43312;BME280;30041;48.300;16.352;2023-01-28T00:18:45;100146.84;;;22.01;40.57
43312;BME280;30041;48.300;16.352;2023-01-28T00:21:12;100148.53;;;22.02;40.56
43312;BME280;30041;48.300;16.352;2023-01-28T00:23:41;100147.09;;;22.00;40.47
43312;BME280;30041;48.300;16.352;2023-01-28T00:26:13;100151.09;;;21.97;40.66
43312;BME280;30041;48.300;16.352;2023-01-28T00:28:39;100150.84;;;21.98;40.56
43312;BME280;30041;48.300;16.352;2023-01-28T00:31:15;100150.03;;;21.98;40.74
43312;BME280;30041;48.300;16.352;2023-01-28T00:33:43;100140.03;;;21.98;40.59
43312;BME280;30041;48.300;16.352;2023-01-28T00:36:09;100150.03;;;21.98;40.63
43312;BME280;30041;48.300;16.352;2023-01-28T00:38:34;100149.19;;;21.97;40.49
43312;BME280;30041;48.300;16.352;2023-01-28T00:41:14;100147.78;;;21.95;40.67
43312;BME280;30041;48.300;16.352;2023-01-28T00:43:42;100141.31;;;21.96;40.62
43312;BME280;30041;48.300;16.352;2023-01-28T00:46:09;100129.72;;;21.95;40.69
43312;BME280;30041;48.300;16.352;2023-01-28T00:48:36;100144.03;;;21.96;40.76
43312;BME280;30041;48.300;16.352;2023-01-28T00:51:02;100135.34;;;21.94;40.63
43312;BME280;30041;48.300;16.352;2023-01-28T00:53:28;100139.09;;;21.93;40.58
43312;BME280;30041;48.300;16.352;2023-01-28T00:55:54;100136.75;;;21.96;40.61
43312;BME280;30041;48.300;16.352;2023-01-28T00:58:20;100142.41;;;21.95;40.46
43312;BME280;30041;48.300;16.352;2023-01-28T01:00:45;100142.63;;;21.93;40.64
43312;BME280;30041;48.300;16.352;2023-01-28T01:03:11;100136.16;;;21.94;40.44
43312;BME280;30041;48.300;16.352;2023-01-28T01:05:37;100146.13;;;21.94;40.68
43312;BME280;30041;48.300;16.352;2023-01-28T01:08:03;100142.63;;;21.93;40.76
43312;BME280;30041;48.300;16.352;2023-01-28T01:10:29;100144.25;;;21.94;40.67
43312;BME280;30041;48.300;16.352;2023-01-28T01:12:54;100133.09;;;21.91;40.62
43312;BME280;30041;48.300;16.352;2023-01-28T01:15:20;100143.91;;;21.91;40.53
43312;BME280;30041;48.300;16.352;2023-01-28T01:17:47;100143.91;;;21.91;40.62
43312;BME280;30041;48.300;16.352;2023-01-28T01:20:16;100150.94;;;21.92;40.57
43312;BME280;30041;48.300;16.352;2023-01-28T01:22:42;100142.81;;;21.92;40.56
43312;BME280;30041;48.300;16.352;2023-01-28T01:25:08;100145.53;;;21.92;40.65
43312;BME280;30041;48.300;16.352;2023-01-28T01:27:34;100146.34;;;21.92;40.64
43312;BME280;30041;48.300;16.352;2023-01-28T01:29:59;100148.22;;;21.92;40.46
43312;BME280;30041;48.300;16.352;2023-01-28T01:32:29;100150.94;;;21.92;40.67
43312;BME280;30041;48.300;16.352;2023-01-28T01:34:55;100154.44;;;21.92;40.57
43312;BME280;30041;48.300;16.352;2023-01-28T01:37:20;100155.03;;;21.94;40.61
43312;BME280;30041;48.300;16.352;2023-01-28T01:39:46;100151.53;;;21.94;40.49
43312;BME280;30041;48.300;16.352;2023-01-28T01:42:12;100148.81;;;21.94;40.36
43312;BME280;30041;48.300;16.352;2023-01-28T01:47:38;100152.59;;;21.93;40.58
43312;BME280;30041;48.300;16.352;2023-01-28T01:50:25;100143.91;;;21.91;40.50
43312;BME280;30041;48.300;16.352;2023-01-28T01:52:55;100147.19;;;21.93;40.36
43312;BME280;30041;48.300;16.352;2023-01-28T01:55:23;100151.38;;;21.89;40.60
43312;BME280;30041;48.300;16.352;2023-01-28T01:57:53;100151.38;;;21.89;40.59
43312;BME280;30041;48.300;16.352;2023-01-28T02:00:19;100144.72;;;21.91;40.55
43312;BME280;30041;48.300;16.352;2023-01-28T02:02:47;100146.00;;;21.89;40.74
43312;BME280;30041;48.300;16.352;2023-01-28T02:05:16;100155.50;;;21.91;40.56
43312;BME280;30041;48.300;16.352;2023-01-28T02:07:45;100146.00;;;21.89;40.63
43312;BME280;30041;48.300;16.352;2023-01-28T02:10:12;100147.88;;;21.88;40.64
43312;BME280;30041;48.300;16.352;2023-01-28T02:12:53;100145.41;;;21.87;40.65
43312;BME280;30041;48.300;16.352;2023-01-28T02:15:23;100145.19;;;21.88;40.48
43312;BME280;30041;48.300;16.352;2023-01-28T02:17:50;100146.81;;;21.89;40.49
43312;BME280;30041;48.300;16.352;2023-01-28T02:20:36;100151.84;;;21.86;40.70
43312;BME280;30041;48.300;16.352;2023-01-28T02:23:25;100145.63;;;21.85;40.47
43312;BME280;30041;48.300;16.352;2023-01-28T02:28:48;100141.88;;;21.86;40.60
43312;BME280;30041;48.300;16.352;2023-01-28T02:39:28;100143.50;;;21.87;40.40
43312;BME280;30041;48.300;16.352;2023-01-28T02:42:05;100147.28;;;21.86;40.59
43312;BME280;30041;48.300;16.352;2023-01-28T02:44:32;100140.00;;;21.87;40.42
43312;BME280;30041;48.300;16.352;2023-01-28T02:46:57;100144.34;;;21.88;40.38
43312;BME280;30041;48.300;16.352;2023-01-28T02:49:51;100148.91;;;21.87;40.63
43312;BME280;30041;48.300;16.352;2023-01-28T02:55:20;100142.09;;;21.85;40.48
43312;BME280;30041;48.300;16.352;2023-01-28T02:58:36;100147.38;;;21.80;40.63
43312;BME280;30041;48.300;16.352;2023-01-28T03:06:33;100146.69;;;21.84;40.49
43312;BME280;30041;48.300;16.352;2023-01-28T03:09:04;100145.00;;;21.83;40.66
43312;BME280;30041;48.300;16.352;2023-01-28T03:11:35;100144.66;;;21.80;40.52
43312;BME280;30041;48.300;16.352;2023-01-28T03:14:02;100140.69;;;21.82;40.62
43312;BME280;30041;48.300;16.352;2023-01-28T03:16:30;100147.50;;;21.85;40.45
43312;BME280;30041;48.300;16.352;2023-01-28T03:18:57;100150.41;;;21.83;40.49
43312;BME280;30041;48.300;16.352;2023-01-28T03:21:30;100152.28;;;21.83;40.70
43312;BME280;30041;48.300;16.352;2023-01-28T03:24:01;100166.59;;;21.83;40.53
43312;BME280;30041;48.300;16.352;2023-01-28T03:26:29;100162.50;;;21.81;40.54
43312;BME280;30041;48.300;16.352;2023-01-28T03:29:04;100164.16;;;21.82;40.47
43312;BME280;30041;48.300;16.352;2023-01-28T03:31:32;100165.19;;;21.81;40.61
43312;BME280;30041;48.300;16.352;2023-01-28T03:34:00;100172.25;;;21.82;40.50
43312;BME280;30041;48.300;16.352;2023-01-28T03:36:27;100167.88;;;21.81;40.51
43312;BME280;30041;48.300;16.352;2023-01-28T03:38:53;100169.97;;;21.79;40.51
43312;BME280;30041;48.300;16.352;2023-01-28T03:41:22;100176.44;;;21.77;40.59
43312;BME280;30041;48.300;16.352;2023-01-28T03:43:48;100163.56;;;21.80;40.58
43312;BME280;30041;48.300;16.352;2023-01-28T03:46:15;100162.28;;;21.82;40.32
43312;BME280;30041;48.300;16.352;2023-01-28T03:48:41;100168.47;;;21.83;40.55
43312;BME280;30041;48.300;16.352;2023-01-28T03:51:06;100167.88;;;21.81;40.38
43312;BME280;30041;48.300;16.352;2023-01-28T03:53:32;100169.75;;;21.80;40.43
43312;BME280;30041;48.300;16.352;2023-01-28T03:55:57;100163.31;;;21.81;40.42
43312;BME280;30041;48.300;16.352;2023-01-28T03:58:24;100165.19;;;21.81;40.52
43312;BME280;30041;48.300;16.352;2023-01-28T04:00:49;100162.28;;;21.82;40.40
43312;BME280;30041;48.300;16.352;2023-01-28T04:03:17;100164.38;;;21.80;40.50
43312;BME280;30041;48.300;16.352;2023-01-28T04:08:22;100161.22;;;21.83;40.40
43312;BME280;30041;48.300;16.352;2023-01-28T04:10:48;100164.75;;;21.84;40.40
43312;BME280;30041;48.300;16.352;2023-01-28T04:13:13;100171.19;;;21.83;40.29
43312;BME280;30041;48.300;16.352;2023-01-28T04:15:39;100169.31;;;21.83;40.33
43312;BME280;30041;48.300;16.352;2023-01-28T04:18:04;100164.75;;;21.84;40.32
43312;BME280;30041;48.300;16.352;2023-01-28T04:20:30;100169.56;;;21.82;40.74
43312;BME280;30041;48.300;16.352;2023-01-28T04:22:56;100179.28;;;21.83;40.28
43312;BME280;30041;48.300;16.352;2023-01-28T04:25:21;100168.69;;;21.81;40.31
43312;BME280;30041;48.300;16.352;2023-01-28T04:27:47;100167.28;;;21.79;40.46
43312;BME280;30041;48.300;16.352;2023-01-28T04:30:15;100177.03;;;21.80;40.57
43312;BME280;30041;48.300;16.352;2023-01-28T04:32:41;100163.56;;;21.80;40.38
43312;BME280;30041;48.300;16.352;2023-01-28T04:35:06;100173.88;;;21.83;40.22
43312;BME280;30041;48.300;16.352;2023-01-28T04:37:32;100169.56;;;21.82;40.50
43312;BME280;30041;48.300;16.352;2023-01-28T04:39:57;100174.78;;;21.76;40.46
43312;BME280;30041;48.300;16.352;2023-01-28T04:42:26;100176.44;;;21.77;40.49
43312;BME280;30041;48.300;16.352;2023-01-28T04:44:51;100173.75;;;21.77;40.33
43312;BME280;30041;48.300;16.352;2023-01-28T04:47:17;100181.03;;;21.77;40.42
43312;BME280;30041;48.300;16.352;2023-01-28T04:49:45;100187.03;;;21.79;40.37
43312;BME280;30041;48.300;16.352;2023-01-28T04:52:10;100182.44;;;21.80;40.41
43312;BME280;30041;48.300;16.352;2023-01-28T04:54:36;100184.31;;;21.79;40.36
43312;BME280;30041;48.300;16.352;2023-01-28T04:57:01;100182.66;;;21.78;40.29
43312;BME280;30041;48.300;16.352;2023-01-28T04:59:26;100187.44;;;21.76;40.30
43312;BME280;30041;48.300;16.352;2023-01-28T05:01:52;100181.84;;;21.77;40.32
43312;BME280;30041;48.300;16.352;2023-01-28T05:04:17;100182.56;;;21.85;40.08
43312;BME280;30041;48.300;16.352;2023-01-28T05:06:43;100176.16;;;21.86;40.06
43312;BME280;30041;48.300;16.352;2023-01-28T05:09:08;100185.50;;;21.83;40.14
43312;BME280;30041;48.300;16.352;2023-01-28T05:11:36;100188.44;;;21.82;40.19
43312;BME280;30041;48.300;16.352;2023-01-28T05:14:04;100182.56;;;21.85;40.15
43312;BME280;30041;48.300;16.352;2023-01-28T05:16:30;100184.25;;;21.86;40.11
43312;BME280;30041;48.300;16.352;2023-01-28T05:18:55;100189.84;;;21.84;40.18
43312;BME280;30041;48.300;16.352;2023-01-28T05:21:21;100186.94;;;21.86;40.10
43312;BME280;30041;48.300;16.352;2023-01-28T05:23:46;100191.47;;;21.85;40.15
43312;BME280;30041;48.300;16.352;2023-01-28T05:26:12;100190.06;;;21.83;40.08
43312;BME280;30041;48.300;16.352;2023-01-28T05:28:40;100198.38;;;21.81;40.30
43312;BME280;30041;48.300;16.352;2023-01-28T05:31:06;100194.88;;;21.81;40.25
43312;BME280;30041;48.300;16.352;2023-01-28T05:33:32;100192.78;;;21.83;40.12
43312;BME280;30041;48.300;16.352;2023-01-28T05:35:58;100194.66;;;21.82;40.20
43312;BME280;30041;48.300;16.352;2023-01-28T05:38:23;100199.66;;;21.79;40.24
43312;BME280;30041;48.300;16.352;2023-01-28T05:40:49;100197.94;;;21.84;40.16
43312;BME280;30041;48.300;16.352;2023-01-28T05:43:15;100189.72;;;21.79;40.28
43312;BME280;30041;48.300;16.352;2023-01-28T05:45:41;100193.38;;;21.85;40.15
43312;BME280;30041;48.300;16.352;2023-01-28T05:48:07;100199.22;;;21.82;40.27
43312;BME280;30041;48.300;16.352;2023-01-28T05:50:32;100199.81;;;21.84;40.12
43312;BME280;30041;48.300;16.352;2023-01-28T05:52:58;100194.19;;;21.85;40.28
43312;BME280;30041;48.300;16.352;2023-01-28T05:55:23;100200.66;;;21.84;40.07
43312;BME280;30041;48.300;16.352;2023-01-28T05:57:49;100213.69;;;21.87;40.00
43312;BME280;30041;48.300;16.352;2023-01-28T06:00:15;100210.16;;;21.87;39.98
43312;BME280;30041;48.300;16.352;2023-01-28T06:02:41;100212.03;;;21.86;40.16
43312;BME280;30041;48.300;16.352;2023-01-28T06:05:10;100209.56;;;21.85;39.93
43312;BME280;30041;48.300;16.352;2023-01-28T06:07:35;100209.56;;;21.85;40.21
43312;BME280;30041;48.300;16.352;2023-01-28T06:10:01;100213.69;;;21.87;40.05
43312;BME280;30041;48.300;16.352;2023-01-28T06:12:27;100208.75;;;21.84;40.01
43312;BME280;30041;48.300;16.352;2023-01-28T06:14:52;100209.94;;;21.88;40.12
43312;BME280;30041;48.300;16.352;2023-01-28T06:17:18;100211.22;;;21.86;40.07
43312;BME280;30041;48.300;16.352;2023-01-28T06:19:43;100215.56;;;21.87;40.07
43312;BME280;30041;48.300;16.352;2023-01-28T06:22:09;100226.56;;;21.85;40.17
43312;BME280;30041;48.300;16.352;2023-01-28T06:24:35;100222.59;;;21.88;40.09
43312;BME280;30041;48.300;16.352;2023-01-28T06:27:00;100226.34;;;21.87;40.11
43312;BME280;30041;48.300;16.352;2023-01-28T06:29:26;100226.56;;;21.85;39.99
43312;BME280;30041;48.300;16.352;2023-01-28T06:31:51;100227.41;;;21.86;40.15
43312;BME280;30041;48.300;16.352;2023-01-28T06:34:17;100221.16;;;21.85;40.14
43312;BME280;30041;48.300;16.352;2023-01-28T06:36:42;100226.34;;;21.87;40.10
43312;BME280;30041;48.300;16.352;2023-01-28T06:39:08;100227.41;;;21.86;40.12
43312;BME280;30041;48.300;16.352;2023-01-28T06:41:34;100232.81;;;21.86;40.07
43312;BME280;30041;48.300;16.352;2023-01-28T06:43:59;100239.25;;;21.85;40.04
43312;BME280;30041;48.300;16.352;2023-01-28T06:46:25;100233.16;;;21.89;39.98
43312;BME280;30041;48.300;16.352;2023-01-28T06:48:50;100243.97;;;21.89;40.08
43312;BME280;30041;48.300;16.352;2023-01-28T06:51:15;100242.31;;;21.88;40.19
43312;BME280;30041;48.300;16.352;2023-01-28T06:53:41;100247.72;;;21.88;40.20
43312;BME280;30041;48.300;16.352;2023-01-28T06:56:07;100252.28;;;21.88;40.14
43312;BME280;30041;48.300;16.352;2023-01-28T06:58:33;100253.34;;;21.87;40.08
43312;BME280;30041;48.300;16.352;2023-01-28T07:00:59;100248.53;;;21.89;40.03
43312;BME280;30041;48.300;16.352;2023-01-28T07:03:25;100246.88;;;21.88;40.07
43312;BME280;30041;48.300;16.352;2023-01-28T07:05:51;100253.34;;;21.87;39.99
43312;BME280;30041;48.300;16.352;2023-01-28T07:08:17;100256.63;;;21.89;40.03
43312;BME280;30041;48.300;16.352;2023-01-28T07:10:43;100248.53;;;21.89;39.99
43312;BME280;30041;48.300;16.352;2023-01-28T07:13:09;100242.53;;;21.87;39.96
43312;BME280;30041;48.300;16.352;2023-01-28T07:15:35;100246.88;;;21.88;40.07
43312;BME280;30041;48.300;16.352;2023-01-28T07:18:01;100252.28;;;21.88;40.05
43312;BME280;30041;48.300;16.352;2023-01-28T07:20:29;100250.66;;;21.43;40.29
43312;BME280;30041;48.300;16.352;2023-01-28T07:22:54;100251.72;;;21.17;40.93
43312;BME280;30041;48.300;16.352;2023-01-28T07:25:20;100253.34;;;21.18;40.90
43312;BME280;30041;48.300;16.352;2023-01-28T07:27:50;100248.16;;;21.23;40.60
43312;BME280;30041;48.300;16.352;2023-01-28T07:30:17;100259.50;;;21.25;40.70
43312;BME280;30041;48.300;16.352;2023-01-28T07:32:43;100258.03;;;21.29;40.76
43312;BME280;30041;48.300;16.352;2023-01-28T07:35:09;100258.22;;;21.34;40.86
43312;BME280;30041;48.300;16.352;2023-01-28T07:37:34;100273.13;;;21.37;40.78
43312;BME280;30041;48.300;16.352;2023-01-28T07:40:00;100259.38;;;21.39;40.93
43312;BME280;30041;48.300;16.352;2023-01-28T07:42:25;100268.13;;;21.41;41.03
43312;BME280;30041;48.300;16.352;2023-01-28T07:44:51;100276.00;;;21.42;41.13
43312;BME280;30041;48.300;16.352;2023-01-28T07:47:17;100271.50;;;21.29;41.44
43312;BME280;30041;48.300;16.352;2023-01-28T07:49:42;100272.56;;;21.28;41.52
43312;BME280;30041;48.300;16.352;2023-01-28T07:52:08;100269.09;;;21.21;41.32
43312;BME280;30041;48.300;16.352;2023-01-28T07:54:33;100282.59;;;21.21;40.89
43312;BME280;30041;48.300;16.352;2023-01-28T07:56:59;100277.97;;;21.28;40.65
43312;BME280;30041;48.300;16.352;2023-01-28T07:59:25;100275.63;;;21.32;40.82
43312;BME280;30041;48.300;16.352;2023-01-28T08:01:51;100277.28;;;21.33;40.74
43312;BME280;30041;48.300;16.352;2023-01-28T08:04:16;100282.13;;;21.24;40.27
43312;BME280;30041;48.300;16.352;2023-01-28T08:06:42;100289.78;;;21.27;40.55
43312;BME280;30041;48.300;16.352;2023-01-28T08:09:07;100291.03;;;21.25;40.70
43312;BME280;30041;48.300;16.352;2023-01-28T08:11:36;100297.84;;;21.27;40.77
43312;BME280;30041;48.300;16.352;2023-01-28T08:14:02;100302.59;;;21.32;40.88
43312;BME280;30041;48.300;16.352;2023-01-28T08:16:27;100296.97;;;21.33;40.84
43312;BME280;30041;48.300;16.352;2023-01-28T08:18:53;100305.69;;;21.35;41.28
43312;BME280;30041;48.300;16.352;2023-01-28T08:21:18;100307.00;;;21.01;37.54
43312;BME280;30041;48.300;16.352;2023-01-28T08:23:43;100318.69;;;20.88;36.16
43312;BME280;30041;48.300;16.352;2023-01-28T08:26:09;100306.75;;;21.03;37.34
43312;BME280;30041;48.300;16.352;2023-01-28T08:28:34;100318.44;;;21.22;37.84
43312;BME280;30041;48.300;16.352;2023-01-28T08:31:00;100317.19;;;21.24;38.65
43312;BME280;30041;48.300;16.352;2023-01-28T08:33:25;100320.84;;;21.30;39.57
43312;BME280;30041;48.300;16.352;2023-01-28T08:35:51;100315.66;;;21.35;39.79
43312;BME280;30041;48.300;16.352;2023-01-28T08:38:16;100323.75;;;21.35;41.24
43312;BME280;30041;48.300;16.352;2023-01-28T08:40:45;100322.91;;;21.34;41.65
43312;BME280;30041;48.300;16.352;2023-01-28T08:43:11;100333.03;;;21.39;41.27
43312;BME280;30041;48.300;16.352;2023-01-28T08:45:38;100329.50;;;21.39;41.85
43312;BME280;30041;48.300;16.352;2023-01-28T08:48:06;100335.94;;;21.38;41.84
43312;BME280;30041;48.300;16.352;2023-01-28T08:50:34;100335.75;;;21.39;41.94
43312;BME280;30041;48.300;16.352;2023-01-28T08:53:03;100339.47;;;21.38;41.83
43312;BME280;30041;48.300;16.352;2023-01-28T08:55:29;100336.75;;;21.38;41.84
43312;BME280;30041;48.300;16.352;2023-01-28T08:57:55;100349.00;;;21.41;41.75
43312;BME280;30041;48.300;16.352;2023-01-28T09:00:21;100344.47;;;21.41;42.03
43312;BME280;30041;48.300;16.352;2023-01-28T09:02:51;100339.25;;;21.40;42.38
43312;BME280;30041;48.300;16.352;2023-01-28T09:05:18;100342.78;;;21.40;42.15
43312;BME280;30041;48.300;16.352;2023-01-28T09:07:46;100346.53;;;21.39;41.89
43312;BME280;30041;48.300;16.352;2023-01-28T09:10:13;100340.28;;;21.39;42.00
43312;BME280;30041;48.300;16.352;2023-01-28T09:12:39;100337.38;;;21.40;41.70
43312;BME280;30041;48.300;16.352;2023-01-28T09:15:05;100339.91;;;21.10;40.23
43312;BME280;30041;48.300;16.352;2023-01-28T09:17:31;100355.13;;;20.91;37.98
43312;BME280;30041;48.300;16.352;2023-01-28T09:19:56;100343.84;;;20.69;38.17
43312;BME280;30041;48.300;16.352;2023-01-28T09:22:22;100353.09;;;20.86;38.54
43312;BME280;30041;48.300;16.352;2023-01-28T09:24:48;100347.38;;;21.08;38.97
43312;BME280;30041;48.300;16.352;2023-01-28T09:27:13;100350.63;;;21.17;39.24
43312;BME280;30041;48.300;16.352;2023-01-28T09:29:39;100352.44;;;21.23;39.72
43312;BME280;30041;48.300;16.352;2023-01-28T09:32:05;100353.66;;;21.27;39.79
43312;BME280;30041;48.300;16.352;2023-01-28T09:34:30;100348.75;;;21.17;39.99
43312;BME280;30041;48.300;16.352;2023-01-28T09:36:56;100347.19;;;21.03;38.72
43312;BME280;30041;48.300;16.352;2023-01-28T09:39:21;100355.72;;;21.00;39.24
43312;BME280;30041;48.300;16.352;2023-01-28T09:41:50;100360.63;;;21.09;39.40
43312;BME280;30041;48.300;16.352;2023-01-28T09:46:50;100354.53;;;21.21;39.73
43312;BME280;30041;48.300;16.352;2023-01-28T09:49:34;100357.88;;;21.16;40.21
43312;BME280;30041;48.300;16.352;2023-01-28T09:52:02;100365.97;;;21.16;40.42
43312;BME280;30041;48.300;16.352;2023-01-28T09:54:40;100359.53;;;21.17;40.56
43312;BME280;30041;48.300;16.352;2023-01-28T09:57:13;100368.84;;;21.21;40.66
43312;BME280;30041;48.300;16.352;2023-01-28T09:59:43;100373.19;;;21.22;40.61
43312;BME280;30041;48.300;16.352;2023-01-28T10:02:36;100370.03;;;21.25;40.85
43312;BME280;30041;48.300;16.352;2023-01-28T10:05:19;100362.78;;;20.42;36.42
43312;BME280;30041;48.300;16.352;2023-01-28T10:10:49;100361.88;;;20.68;38.36
43312;BME280;30041;48.300;16.352;2023-01-28T10:13:25;100359.75;;;20.84;38.74
43312;BME280;30041;48.300;16.352;2023-01-28T10:16:08;100363.44;;;20.89;39.69
43312;BME280;30041;48.300;16.352;2023-01-28T10:18:49;100359.25;;;20.93;40.28
43312;BME280;30041;48.300;16.352;2023-01-28T10:24:10;100346.19;;;20.97;40.83
43312;BME280;30041;48.300;16.352;2023-01-28T10:26:40;100348.84;;;21.04;40.56
43312;BME280;30041;48.300;16.352;2023-01-28T10:29:17;100350.94;;;21.02;40.66
43312;BME280;30041;48.300;16.352;2023-01-28T10:31:53;100344.88;;;21.06;41.01
43312;BME280;30041;48.300;16.352;2023-01-28T10:34:20;100352.09;;;21.12;41.12
43312;BME280;30041;48.300;16.352;2023-01-28T10:36:47;100355.66;;;21.06;41.30
43312;BME280;30041;48.300;16.352;2023-01-28T10:39:14;100354.59;;;21.07;40.80
43312;BME280;30041;48.300;16.352;2023-01-28T10:41:41;100355.22;;;21.09;40.65
43312;BME280;30041;48.300;16.352;2023-01-28T10:44:17;100361.38;;;21.23;41.00
43312;BME280;30041;48.300;16.352;2023-01-28T10:46:47;100359.00;;;21.33;40.69
43312;BME280;30041;48.300;16.352;2023-01-28T10:49:23;100364.56;;;21.39;40.47
43312;BME280;30041;48.300;16.352;2023-01-28T10:51:50;100360.81;;;21.46;40.22
43312;BME280;30041;48.300;16.352;2023-01-28T10:54:28;100358.94;;;21.47;40.10
43312;BME280;30041;48.300;16.352;2023-01-28T10:56:56;100359.31;;;21.50;40.25
43312;BME280;30041;48.300;16.352;2023-01-28T10:59:34;100362.03;;;21.50;40.39
43312;BME280;30041;48.300;16.352;2023-01-28T11:02:03;100359.09;;;21.52;40.35
43312;BME280;30041;48.300;16.352;2023-01-28T11:04:31;100367.16;;;21.52;40.52
43312;BME280;30041;48.300;16.352;2023-01-28T11:07:05;100360.75;;;21.53;40.52
43312;BME280;30041;48.300;16.352;2023-01-28T11:09:36;100366.75;;;21.55;40.56
43312;BME280;30041;48.300;16.352;2023-01-28T11:12:22;100361.97;;;21.57;40.71
43312;BME280;30041;48.300;16.352;2023-01-28T11:14:49;100359.28;;;21.57;40.63
43312;BME280;30041;48.300;16.352;2023-01-28T11:17:17;100348.03;;;21.60;40.71
43312;BME280;30041;48.300;16.352;2023-01-28T11:19:46;100353.88;;;21.57;40.63
43312;BME280;30041;48.300;16.352;2023-01-28T11:22:34;100356.13;;;21.60;40.65
43312;BME280;30041;48.300;16.352;2023-01-28T11:25:03;100352.34;;;21.61;40.79
43312;BME280;30041;48.300;16.352;2023-01-28T11:27:31;100352.81;;;21.58;40.67
43312;BME280;30041;48.300;16.352;2023-01-28T11:29:59;100350.72;;;21.60;40.88
43312;BME280;30041;48.300;16.352;2023-01-28T11:32:29;100354.03;;;21.62;40.95
43312;BME280;30041;48.300;16.352;2023-01-28T11:34:56;100352.16;;;21.63;40.82
43312;BME280;30041;48.300;16.352;2023-01-28T11:37:23;100351.22;;;21.50;41.57
43312;BME280;30041;48.300;16.352;2023-01-28T11:40:13;100354.66;;;21.32;42.63
43312;BME280;30041;48.300;16.352;2023-01-28T11:42:39;100352.84;;;21.26;42.80
43312;BME280;30041;48.300;16.352;2023-01-28T11:45:21;100352.78;;;21.33;41.93
43312;BME280;30041;48.300;16.352;2023-01-28T11:47:58;100352.38;;;21.29;42.72
43312;BME280;30041;48.300;16.352;2023-01-28T11:53:09;100350.97;;;21.27;43.05
43312;BME280;30041;48.300;16.352;2023-01-28T11:56:11;100345.72;;;21.32;42.93
43312;BME280;30041;48.300;16.352;2023-01-28T11:58:49;100345.94;;;21.62;42.26
43312;BME280;30041;48.300;16.352;2023-01-28T12:09:57;100345.44;;;21.47;43.26
43312;BME280;30041;48.300;16.352;2023-01-28T12:18:07;100351.28;;;21.69;42.95
43312;BME280;30041;48.300;16.352;2023-01-28T12:21:03;100353.91;;;21.75;42.61
43312;BME280;30041;48.300;16.352;2023-01-28T12:24:07;100351.81;;;21.77;42.33
43312;BME280;30041;48.300;16.352;2023-01-28T12:26:54;100346.63;;;21.76;42.17
43312;BME280;30041;48.300;16.352;2023-01-28T12:29:37;100353.91;;;21.75;41.69
43312;BME280;30041;48.300;16.352;2023-01-28T12:32:23;100347.63;;;21.56;42.21
43312;BME280;30041;48.300;16.352;2023-01-28T12:40:32;100355.97;;;21.55;42.52
43312;BME280;30041;48.300;16.352;2023-01-28T12:43:10;100363.59;;;21.58;42.49
43312;BME280;30041;48.300;16.352;2023-01-28T12:45:44;100359.88;;;21.59;42.59
43312;BME280;30041;48.300;16.352;2023-01-28T12:48:28;100358.81;;;21.60;42.62
43312;BME280;30041;48.300;16.352;2023-01-28T12:51:02;100364.81;;;21.62;42.71
43312;BME280;30041;48.300;16.352;2023-01-28T12:53:39;100356.72;;;21.62;42.71
43312;BME280;30041;48.300;16.352;2023-01-28T12:56:16;100373.94;;;21.61;43.00
43312;BME280;30041;48.300;16.352;2023-01-28T12:59:02;100369.22;;;21.56;42.77
43312;BME280;30041;48.300;16.352;2023-01-28T13:01:38;100360.91;;;21.58;43.12
43312;BME280;30041;48.300;16.352;2023-01-28T13:04:11;100369.59;;;21.60;43.02
43312;BME280;30041;48.300;16.352;2023-01-28T13:06:59;100369.59;;;21.60;43.13
43312;BME280;30041;48.300;16.352;2023-01-28T13:09:27;100367.50;;;21.62;43.14
43312;BME280;30041;48.300;16.352;2023-01-28T13:11:56;100357.75;;;21.61;43.07
43312;BME280;30041;48.300;16.352;2023-01-28T13:14:29;100370.22;;;21.62;43.24
43312;BME280;30041;48.300;16.352;2023-01-28T13:16:55;100368.53;;;21.61;43.27
43312;BME280;30041;48.300;16.352;2023-01-28T13:19:23;100369.16;;;21.63;43.12
43312;BME280;30041;48.300;16.352;2023-01-28T13:21:49;100366.91;;;21.60;43.22
43312;BME280;30041;48.300;16.352;2023-01-28T13:31:44;100373.72;;;21.63;43.28
43312;BME280;30041;48.300;16.352;2023-01-28T13:34:37;100367.13;;;21.59;43.36
43312;BME280;30041;48.300;16.352;2023-01-28T13:37:14;100376.06;;;21.59;43.25
43312;BME280;30041;48.300;16.352;2023-01-28T13:39:47;100376.47;;;21.56;43.51
43312;BME280;30041;48.300;16.352;2023-01-28T13:42:28;100379.78;;;21.58;43.71
43312;BME280;30041;48.300;16.352;2023-01-28T13:44:55;100390.13;;;21.61;43.42
43312;BME280;30041;48.300;16.352;2023-01-28T13:47:25;100391.63;;;21.57;43.43
43312;BME280;30041;48.300;16.352;2023-01-28T13:49:59;100384.56;;;21.56;43.53
43312;BME280;30041;48.300;16.352;2023-01-28T13:52:36;100391.63;;;21.57;43.73
43312;BME280;30041;48.300;16.352;2023-01-28T13:57:55;100399.72;;;21.57;43.60